Time;durP1;ratioP1;P1;durP2;ratioP2;P2;SDS_P1;SDS_P2;PMS_P1;PMS_P2;Temp;Humidity;BMP_temperature;BMP_pressure;BME280_temperature;BME280_humidity;BME280_pressure;Samples;Min_cycle;Max_cycle;Signal;HPM_P1;HPM_P2
2023/10/15 00:00:18;;;;;;;0.32;0.32;;;10.40;78.90;;;;;;5065838;28;20056;-63
2023/10/15 00:02:49;;;;;;;3.13;0.63;;;10.40;79.00;;;;;;5064257;28;20535;-63
2023/10/15 00:05:18;;;;;;;0.30;0.30;;;10.50;79.00;;;;;;5063795;28;20364;-63
2023/10/15 00:07:45;;;;;;;2.28;0.60;;;10.50;79.10;;;;;;5061074;28;20018;-63
2023/10/15 00:10:16;;;;;;;0.20;0.20;;;10.60;79.20;;;;;;5066352;28;20032;-63
2023/10/15 00:12:43;;;;;;;2.78;0.90;;;10.60;79.30;;;;;;5065970;28;20021;-63
2023/10/15 00:15:19;;;;;;;0.98;0.40;;;10.60;79.20;;;;;;5057710;28;20458;-63
2023/10/15 00:17:47;;;;;;;0.52;0.43;;;10.60;79.40;;;;;;5067020;28;20029;-63
2023/10/15 00:20:16;;;;;;;0.43;0.38;;;10.60;79.60;;;;;;5064468;28;20041;-63
2023/10/15 00:22:43;;;;;;;2.75;0.22;;;10.60;79.70;;;;;;5065079;28;20044;-64
2023/10/15 00:25:12;;;;;;;1.88;0.63;;;10.60;79.60;;;;;;5066040;28;20036;-63
2023/10/15 00:27:38;;;;;;;0.60;0.60;;;10.60;79.70;;;;;;5066826;28;20039;-63
2023/10/15 00:30:12;;;;;;;6.47;0.52;;;10.60;79.90;;;;;;5066507;28;20029;-63
2023/10/15 00:32:42;;;;;;;1.17;0.38;;;10.50;80.00;;;;;;5066674;28;20020;-63
2023/10/15 00:35:08;;;;;;;2.28;0.52;;;10.50;80.00;;;;;;5061678;28;20035;-63
2023/10/15 00:37:37;;;;;;;2.08;0.50;;;10.50;80.10;;;;;;5056258;28;20025;-63
2023/10/15 00:40:04;;;;;;;2.85;0.30;;;10.50;80.00;;;;;;5059417;28;20124;-63
2023/10/15 00:42:30;;;;;;;0.22;0.22;;;10.50;79.90;;;;;;5053283;28;20033;-63
2023/10/15 00:44:57;;;;;;;0.50;0.43;;;10.50;79.90;;;;;;5058032;28;20024;-63
2023/10/15 00:47:23;;;;;;;0.30;0.28;;;10.50;79.90;;;;;;5063949;28;20032;-63
2023/10/15 00:49:48;;;;;;;0.68;0.30;;;10.40;80.00;;;;;;5050186;28;20545;-63
2023/10/15 00:52:15;;;;;;;2.22;0.40;;;10.40;80.10;;;;;;5066914;28;20131;-63
2023/10/15 00:54:41;;;;;;;2.88;0.40;;;10.40;80.20;;;;;;5064708;28;20036;-63
2023/10/15 00:57:41;;;;;;;0.35;0.28;;;10.40;80.20;;;;;;5037043;28;20419;-63
2023/10/15 01:00:37;;;;;;;0.30;0.30;;;10.40;80.20;;;;;;5066104;28;20459;-63
2023/10/15 01:02:56;;;;;;;0.57;0.40;;;10.40;80.90;;;;;;5066056;28;20043;-64
2023/10/15 01:05:25;;;;;;;1.98;0.22;;;10.30;80.60;;;;;;5066665;28;20033;-64
2023/10/15 01:07:51;;;;;;;0.65;0.40;;;10.30;80.60;;;;;;5065226;28;20169;-63
2023/10/15 01:10:32;;;;;;;1.88;0.32;;;10.30;80.70;;;;;;5067741;28;20388;-63
2023/10/15 01:13:05;;;;;;;0.20;0.20;;;10.30;80.80;;;;;;5061625;28;20541;-64
2023/10/15 01:15:35;;;;;;;2.20;0.45;;;10.30;80.90;;;;;;5049129;28;20024;-63
2023/10/15 01:18:07;;;;;;;1.85;0.60;;;10.30;81.00;;;;;;5065514;28;20422;-63
2023/10/15 01:20:45;;;;;;;4.40;0.65;;;10.20;81.00;;;;;;5068294;28;20032;-63
2023/10/15 01:25:59;;;;;;;0.63;0.63;;;10.30;81.30;;;;;;5068016;28;20042;-64
2023/10/15 01:28:36;;;;;;;0.20;0.20;;;10.20;81.30;;;;;;5071011;28;20475;-63
2023/10/15 01:31:06;;;;;;;0.30;0.30;;;10.30;81.30;;;;;;5069889;28;20025;-63
2023/10/15 01:33:45;;;;;;;0.52;0.30;;;10.40;81.80;;;;;;5068206;28;20044;-63
2023/10/15 01:36:16;;;;;;;0.52;0.52;;;10.40;81.00;;;;;;5066643;28;20025;-63
2023/10/15 01:38:44;;;;;;;0.40;0.32;;;10.40;80.90;;;;;;5069014;28;20387;-64
2023/10/15 01:41:13;;;;;;;0.30;0.30;;;10.30;81.00;;;;;;5061379;28;20034;-63
2023/10/15 01:43:46;;;;;;;0.28;0.25;;;10.30;81.10;;;;;;5063457;28;20036;-63
2023/10/15 01:46:39;;;;;;;0.43;0.20;;;10.40;81.10;;;;;;5066466;28;20159;-63
2023/10/15 01:49:06;;;;;;;0.20;0.20;;;10.40;81.20;;;;;;5067778;28;20043;-63
2023/10/15 01:51:39;;;;;;;0.20;0.20;;;10.40;81.10;;;;;;5050561;28;20488;-63
2023/10/15 01:54:09;;;;;;;0.20;0.20;;;10.40;81.20;;;;;;5066090;28;20502;-63
2023/10/15 01:56:44;;;;;;;0.45;0.35;;;10.30;80.90;;;;;;5061392;28;20032;-63
2023/10/15 01:59:11;;;;;;;1.05;0.73;;;10.30;80.90;;;;;;5051744;28;20079;-63
2023/10/15 02:01:49;;;;;;;0.57;0.40;;;10.30;81.00;;;;;;5068147;28;20028;-63
2023/10/15 02:04:25;;;;;;;0.77;0.15;;;10.20;81.20;;;;;;5065124;28;20047;-63
2023/10/15 02:06:51;;;;;;;0.47;0.30;;;10.10;81.60;;;;;;5052361;28;20043;-63
2023/10/15 02:09:23;;;;;;;0.55;0.20;;;10.10;81.70;;;;;;5070100;28;20093;-63
2023/10/15 02:11:53;;;;;;;0.40;0.40;;;10.00;81.80;;;;;;5067498;28;20025;-64
2023/10/15 02:14:27;;;;;;;4.90;0.65;;;10.00;82.00;;;;;;5063199;28;20275;-64
2023/10/15 02:16:53;;;;;;;0.30;0.20;;;10.00;82.10;;;;;;5064305;28;20025;-63
2023/10/15 02:19:34;;;;;;;0.30;0.30;;;10.00;82.20;;;;;;5066799;28;20068;-63
2023/10/15 02:22:07;;;;;;;0.40;0.25;;;10.00;82.20;;;;;;5050735;28;20482;-63
2023/10/15 02:24:34;;;;;;;1.42;0.45;;;10.00;82.20;;;;;;5058191;28;20369;-63
2023/10/15 02:27:09;;;;;;;1.55;0.40;;;10.00;82.20;;;;;;5063439;28;20032;-64
2023/10/15 02:29:35;;;;;;;0.77;0.52;;;10.10;82.20;;;;;;5060182;28;20403;-63
2023/10/15 02:35:00;;;;;;;0.50;0.50;;;10.10;82.30;;;;;;5042772;28;20056;-63
2023/10/15 02:37:27;;;;;;;0.40;0.40;;;10.10;82.20;;;;;;5067107;28;20016;-64
2023/10/15 02:39:59;;;;;;;0.77;0.40;;;10.20;82.10;;;;;;5066374;28;20111;-63
2023/10/15 02:42:33;;;;;;;0.45;0.30;;;10.20;81.90;;;;;;5065577;28;20025;-63
2023/10/15 02:44:59;;;;;;;0.68;0.35;;;10.30;82.00;;;;;;5067588;28;20055;-63
2023/10/15 02:48:10;;;;;;;3.15;0.40;;;10.30;81.80;;;;;;5066881;28;20044;-63
2023/10/15 02:50:23;;;;;;;0.50;0.35;;;10.40;81.80;;;;;;5061266;28;20135;-63
2023/10/15 02:52:49;;;;;;;0.35;0.35;;;10.40;81.70;;;;;;5068643;28;20146;-63
2023/10/15 02:55:15;;;;;;;0.30;0.30;;;10.50;81.70;;;;;;5066541;28;20115;-63
2023/10/15 02:57:42;;;;;;;0.80;0.35;;;10.50;81.70;;;;;;5065747;28;20037;-63
2023/10/15 03:00:13;;;;;;;0.40;0.25;;;10.50;81.70;;;;;;5065112;28;20481;-63
2023/10/15 03:02:43;;;;;;;1.30;0.55;;;10.50;81.70;;;;;;5066544;28;20450;-64
2023/10/15 03:05:14;;;;;;;0.10;0.10;;;10.50;81.70;;;;;;5060442;28;20024;-64
2023/10/15 03:07:43;;;;;;;0.88;0.30;;;10.50;81.80;;;;;;5046837;28;20033;-63
2023/10/15 03:10:13;;;;;;;0.40;0.40;;;10.50;81.80;;;;;;5063418;28;20043;-63
2023/10/15 03:12:44;;;;;;;1.55;0.25;;;10.50;81.90;;;;;;5065243;28;20020;-63
2023/10/15 03:15:14;;;;;;;1.98;0.20;;;10.40;81.80;;;;;;5069326;28;20369;-63
2023/10/15 03:17:40;;;;;;;0.57;0.45;;;10.40;81.80;;;;;;5066623;28;20139;-63
2023/10/15 03:20:24;;;;;;;0.20;0.20;;;10.30;81.80;;;;;;5063380;28;20561;-64
2023/10/15 03:22:58;;;;;;;1.23;0.60;;;10.30;81.80;;;;;;5066558;28;20473;-63
2023/10/15 03:25:25;;;;;;;0.63;0.30;;;10.20;81.70;;;;;;5064875;28;20028;-63
2023/10/15 03:27:54;;;;;;;0.10;0.10;;;10.20;81.80;;;;;;5060459;28;20028;-63
2023/10/15 03:30:23;;;;;;;0.30;0.30;;;10.20;81.80;;;;;;5043752;28;20074;-64
2023/10/15 03:32:52;;;;;;;0.10;0.10;;;10.30;81.80;;;;;;5047792;28;20585;-63
2023/10/15 03:35:38;;;;;;;0.30;0.20;;;10.30;81.80;;;;;;5066454;28;20016;-63
2023/10/15 03:38:13;;;;;;;0.10;0.10;;;10.30;81.60;;;;;;5065242;28;20024;-63
2023/10/15 03:40:46;;;;;;;0.57;0.30;;;10.30;81.50;;;;;;5056316;28;20016;-63
2023/10/15 03:43:21;;;;;;;1.05;0.20;;;10.30;81.70;;;;;;5064067;28;20029;-63
2023/10/15 03:45:52;;;;;;;0.20;0.20;;;10.20;81.60;;;;;;5054135;28;20029;-63
2023/10/15 03:48:22;;;;;;;0.20;0.20;;;10.20;81.70;;;;;;5063450;28;20041;-63
2023/10/15 03:50:55;;;;;;;1.92;0.20;;;10.20;81.70;;;;;;5068262;28;20042;-63
2023/10/15 03:53:28;;;;;;;0.30;0.25;;;10.20;81.70;;;;;;5067957;28;20044;-63
2023/10/15 03:56:04;;;;;;;2.10;0.28;;;10.30;81.70;;;;;;5063894;28;20088;-63
2023/10/15 03:58:33;;;;;;;0.22;0.22;;;10.20;81.70;;;;;;5055392;28;20495;-63
2023/10/15 04:03:42;;;;;;;0.22;0.22;;;10.20;81.80;;;;;;5060970;28;20048;-63
2023/10/15 04:06:09;;;;;;;0.30;0.30;;;10.20;81.90;;;;;;5059128;28;20399;-63
2023/10/15 04:08:37;;;;;;;0.20;0.20;;;10.20;81.80;;;;;;5058305;28;20432;-63
2023/10/15 04:11:03;;;;;;;0.40;0.40;;;10.20;81.50;;;;;;5061767;28;20048;-63
2023/10/15 04:13:29;;;;;;;0.45;0.45;;;10.10;81.70;;;;;;5057571;28;20025;-63
2023/10/15 04:15:56;;;;;;;1.33;0.30;;;10.00;82.10;;;;;;5059879;28;20376;-63
2023/10/15 04:18:25;;;;;;;0.30;0.30;;;9.90;82.20;;;;;;5056430;28;20082;-63
2023/10/15 04:20:55;;;;;;;0.32;0.30;;;9.90;82.20;;;;;;5057453;28;20029;-63
2023/10/15 04:23:39;;;;;;;0.47;0.20;;;9.80;82.00;;;;;;5058430;28;20017;-63
2023/10/15 04:26:12;;;;;;;0.10;0.10;;;9.80;82.30;;;;;;5035234;28;20043;-63
2023/10/15 04:28:39;;;;;;;0.10;0.10;;;9.80;82.40;;;;;;5056822;28;20060;-63
2023/10/15 04:31:21;;;;;;;0.10;0.10;;;9.80;82.20;;;;;;5053366;28;20025;-63
2023/10/15 04:33:50;;;;;;;0.20;0.20;;;9.80;82.20;;;;;;5057520;28;20025;-63
2023/10/15 04:36:16;;;;;;;0.20;0.20;;;9.90;82.20;;;;;;5060764;28;20383;-63
2023/10/15 04:38:42;;;;;;;0.43;0.25;;;10.00;82.20;;;;;;5055798;28;20040;-64
2023/10/15 04:41:10;;;;;;;0.25;0.22;;;10.00;82.00;;;;;;5060420;28;20033;-63
2023/10/15 04:43:45;;;;;;;0.20;0.20;;;10.10;82.00;;;;;;5060629;28;20115;-63
2023/10/15 04:46:17;;;;;;;0.70;0.22;;;10.10;81.90;;;;;;5060864;28;20048;-63
2023/10/15 04:48:47;;;;;;;0.13;0.10;;;10.00;81.90;;;;;;5064471;28;20553;-63
2023/10/15 04:51:13;;;;;;;1.30;0.32;;;10.10;81.90;;;;;;5063632;28;20029;-63
2023/10/15 04:53:48;;;;;;;0.38;0.20;;;10.10;81.80;;;;;;5059441;28;20569;-64
2023/10/15 04:56:14;;;;;;;0.28;0.28;;;10.00;81.80;;;;;;5064370;28;20112;-63
2023/10/15 04:58:40;;;;;;;0.30;0.30;;;10.00;81.90;;;;;;5041158;28;20053;-63
2023/10/15 05:01:07;;;;;;;0.65;0.20;;;10.00;81.80;;;;;;5041841;28;20393;-63
2023/10/15 05:03:34;;;;;;;0.65;0.43;;;10.00;81.70;;;;;;5044415;28;20371;-64
2023/10/15 05:06:04;;;;;;;0.35;0.35;;;9.90;81.60;;;;;;5047162;28;20025;-64
2023/10/15 05:08:30;;;;;;;0.52;0.47;;;9.90;81.30;;;;;;5044825;28;20072;-64
2023/10/15 05:10:56;;;;;;;0.30;0.30;;;9.80;81.40;;;;;;5049376;28;20383;-63
2023/10/15 05:13:24;;;;;;;0.40;0.35;;;9.70;81.40;;;;;;5046044;28;20029;-64
2023/10/15 05:15:50;;;;;;;0.30;0.20;;;9.70;81.50;;;;;;5048735;28;20025;-63
2023/10/15 05:18:18;;;;;;;0.20;0.20;;;9.70;81.50;;;;;;5046551;28;20540;-63
2023/10/15 05:20:47;;;;;;;1.55;0.57;;;9.70;81.50;;;;;;5050445;28;20021;-64
2023/10/15 05:23:13;;;;;;;0.60;0.20;;;9.70;81.50;;;;;;5045562;28;20033;-64
2023/10/15 05:25:39;;;;;;;0.20;0.20;;;9.70;81.40;;;;;;5044991;28;20094;-64
2023/10/15 05:28:06;;;;;;;0.13;0.13;;;9.70;81.40;;;;;;5042902;28;20100;-63
2023/10/15 05:30:32;;;;;;;0.35;0.28;;;9.70;81.40;;;;;;5050494;28;20440;-63
2023/10/15 05:33:00;;;;;;;0.10;0.10;;;9.70;81.40;;;;;;5048022;28;20033;-64
2023/10/15 05:35:27;;;;;;;1.38;0.22;;;9.60;81.30;;;;;;5045972;28;20148;-63
2023/10/15 05:37:54;;;;;;;0.30;0.30;;;9.60;81.40;;;;;;5049778;28;20047;-64
2023/10/15 05:40:21;;;;;;;0.10;0.10;;;9.60;81.50;;;;;;5049940;28;20033;-64
2023/10/15 05:42:48;;;;;;;0.10;0.10;;;9.50;81.40;;;;;;5049161;28;20029;-63
2023/10/15 05:45:14;;;;;;;0.60;0.47;;;9.40;81.50;;;;;;5047867;28;20032;-63
2023/10/15 05:47:42;;;;;;;0.10;0.10;;;9.50;81.50;;;;;;5047091;28;20124;-63
2023/10/15 05:50:09;;;;;;;9.13;0.45;;;9.40;81.50;;;;;;5050962;28;20036;-63
2023/10/15 05:52:35;;;;;;;0.13;0.13;;;9.40;81.50;;;;;;5047645;28;20056;-63
2023/10/15 05:55:01;;;;;;;0.32;0.15;;;9.40;81.50;;;;;;5046334;28;20017;-63
2023/10/15 05:57:28;;;;;;;0.20;0.20;;;9.30;81.40;;;;;;5047530;28;20385;-63
2023/10/15 05:59:57;;;;;;;0.38;0.30;;;9.30;81.50;;;;;;5045714;28;20040;-63
2023/10/15 06:02:22;;;;;;;0.20;0.20;;;9.20;81.60;;;;;;5047684;28;20529;-63
2023/10/15 06:04:48;;;;;;;0.30;0.30;;;9.20;81.70;;;;;;5045629;28;20116;-63
2023/10/15 06:07:15;;;;;;;0.15;0.15;;;9.20;81.90;;;;;;5049910;28;20063;-63
2023/10/15 06:09:50;;;;;;;1.40;0.50;;;9.20;81.90;;;;;;5046764;28;20037;-63
2023/10/15 06:12:15;;;;;;;1.13;0.28;;;9.20;82.00;;;;;;5043945;28;20036;-64
2023/10/15 06:14:41;;;;;;;0.20;0.20;;;9.30;82.00;;;;;;5046203;28;20032;-64
2023/10/15 06:17:07;;;;;;;0.40;0.40;;;9.30;82.00;;;;;;5049084;28;20392;-64
2023/10/15 06:19:34;;;;;;;0.55;0.45;;;9.30;81.90;;;;;;5043606;28;20033;-64
2023/10/15 06:22:00;;;;;;;3.03;0.20;;;9.30;81.80;;;;;;5042245;28;20033;-64
2023/10/15 06:24:25;;;;;;;1.65;0.60;;;9.30;81.80;;;;;;5065019;28;20037;-64
2023/10/15 06:26:52;;;;;;;0.20;0.20;;;9.30;81.70;;;;;;5048209;28;20040;-64
2023/10/15 06:29:18;;;;;;;1.13;0.40;;;9.30;81.70;;;;;;5047873;28;20025;-65
2023/10/15 06:31:44;;;;;;;0.80;0.38;;;9.30;81.70;;;;;;5047615;28;20036;-64
2023/10/15 06:34:09;;;;;;;0.28;0.28;;;9.30;81.70;;;;;;5042705;28;20293;-64
2023/10/15 06:36:35;;;;;;;0.50;0.50;;;9.30;81.80;;;;;;5046916;28;20052;-64
2023/10/15 06:39:01;;;;;;;0.25;0.25;;;9.30;81.80;;;;;;5049905;28;20052;-64
2023/10/15 06:41:29;;;;;;;0.80;0.30;;;9.30;81.80;;;;;;5047567;28;20029;-63
2023/10/15 06:43:56;;;;;;;0.32;0.30;;;9.30;82.00;;;;;;5039545;28;20495;-64
2023/10/15 06:46:23;;;;;;;0.17;0.17;;;9.30;82.10;;;;;;5044357;28;20671;-64
2023/10/15 06:48:48;;;;;;;0.50;0.28;;;9.30;82.10;;;;;;5018343;28;20299;-63
2023/10/15 06:51:17;;;;;;;0.40;0.40;;;9.40;82.20;;;;;;5041609;28;20025;-64
2023/10/15 06:53:43;;;;;;;0.20;0.20;;;9.40;82.10;;;;;;5036745;28;20475;-64
2023/10/15 06:56:09;;;;;;;0.30;0.30;;;9.50;82.20;;;;;;5042334;28;20025;-64
2023/10/15 06:58:35;;;;;;;0.85;0.40;;;9.60;82.20;;;;;;5055898;28;20048;-64
2023/10/15 07:01:02;;;;;;;0.28;0.28;;;9.60;82.40;;;;;;5068766;28;20024;-64
2023/10/15 07:03:28;;;;;;;0.20;0.20;;;9.60;82.40;;;;;;5057834;28;20115;-64
2023/10/15 07:05:54;;;;;;;1.50;0.73;;;9.70;82.50;;;;;;5068293;28;20116;-64
2023/10/15 07:08:20;;;;;;;1.08;0.73;;;9.70;82.40;;;;;;5066502;28;20059;-64
2023/10/15 07:10:46;;;;;;;2.10;0.32;;;9.70;82.40;;;;;;5067212;28;20033;-63
2023/10/15 07:13:11;;;;;;;0.20;0.20;;;9.70;82.50;;;;;;5067825;28;20035;-64
2023/10/15 07:15:38;;;;;;;0.60;0.60;;;9.70;82.50;;;;;;5067113;28;20062;-63
2023/10/15 07:18:04;;;;;;;0.30;0.30;;;9.70;82.50;;;;;;5065334;28;20078;-63
2023/10/15 07:20:30;;;;;;;0.75;0.40;;;9.80;82.60;;;;;;5063816;28;20040;-63
2023/10/15 07:22:59;;;;;;;0.93;0.47;;;9.90;82.60;;;;;;5067201;28;20028;-64
2023/10/15 07:25:26;;;;;;;0.40;0.40;;;9.90;82.60;;;;;;5047179;28;20107;-64
2023/10/15 07:27:54;;;;;;;0.28;0.28;;;10.00;82.60;;;;;;5067299;28;20066;-62
2023/10/15 07:30:20;;;;;;;0.70;0.30;;;10.10;82.50;;;;;;5064829;28;20369;-62
2023/10/15 07:32:46;;;;;;;0.40;0.40;;;10.20;82.50;;;;;;5067557;28;20391;-62
2023/10/15 07:35:13;;;;;;;1.83;0.68;;;10.30;82.40;;;;;;5063140;28;20108;-64
2023/10/15 07:37:44;;;;;;;0.50;0.50;;;10.30;82.30;;;;;;5067378;28;20020;-64
2023/10/15 07:40:18;;;;;;;0.20;0.20;;;10.40;82.20;;;;;;5059737;28;20037;-64
2023/10/15 07:42:45;;;;;;;0.30;0.30;;;10.30;82.00;;;;;;5061254;28;20031;-64
2023/10/15 07:45:11;;;;;;;1.60;0.30;;;10.30;82.20;;;;;;5063931;28;20036;-64
2023/10/15 07:47:37;;;;;;;0.82;0.22;;;10.30;82.30;;;;;;5049398;28;20028;-64
2023/10/15 07:50:08;;;;;;;0.20;0.20;;;10.30;82.20;;;;;;5062877;28;20487;-65
2023/10/15 07:52:34;;;;;;;0.30;0.28;;;10.30;82.10;;;;;;5061809;28;20078;-65
2023/10/15 07:55:01;;;;;;;0.55;0.28;;;10.20;82.70;;;;;;5061433;28;20027;-65
2023/10/15 07:57:27;;;;;;;0.40;0.40;;;10.20;82.30;;;;;;5064313;28;20654;-63
2023/10/15 07:59:58;;;;;;;3.20;0.35;;;10.10;82.30;;;;;;5063426;28;20139;-64
2023/10/15 08:02:25;;;;;;;1.25;0.50;;;10.00;82.50;;;;;;5061671;28;20056;-66
2023/10/15 08:04:56;;;;;;;0.75;0.20;;;10.10;82.70;;;;;;5049459;28;20031;-66
2023/10/15 08:07:23;;;;;;;0.65;0.50;;;10.20;82.70;;;;;;5043595;28;20025;-66
2023/10/15 08:09:52;;;;;;;0.70;0.20;;;10.20;82.60;;;;;;5062951;28;20033;-66
2023/10/15 08:12:18;;;;;;;0.30;0.30;;;10.20;82.70;;;;;;5065463;28;20029;-66
2023/10/15 08:14:46;;;;;;;1.17;0.55;;;10.30;82.70;;;;;;5046830;28;20056;-64
2023/10/15 08:17:13;;;;;;;1.00;0.60;;;10.30;82.70;;;;;;5061400;28;20043;-66
2023/10/15 08:19:39;;;;;;;0.20;0.20;;;10.40;82.50;;;;;;5062641;28;20044;-64
2023/10/15 08:22:05;;;;;;;0.65;0.32;;;10.40;82.30;;;;;;5067851;28;20029;-64
2023/10/15 08:24:31;;;;;;;3.22;0.40;;;10.50;82.30;;;;;;5066424;28;20043;-66
2023/10/15 08:26:57;;;;;;;0.90;0.70;;;10.50;82.20;;;;;;5061374;28;20472;-64
2023/10/15 08:29:22;;;;;;;0.30;0.30;;;10.50;82.20;;;;;;5065874;28;20029;-66
2023/10/15 08:31:48;;;;;;;0.30;0.30;;;10.50;82.10;;;;;;5064157;28;20108;-63
2023/10/15 08:34:13;;;;;;;0.75;0.40;;;10.40;82.10;;;;;;5070546;28;20025;-62
2023/10/15 08:36:39;;;;;;;0.30;0.30;;;10.40;82.30;;;;;;5067924;28;20028;-62
2023/10/15 08:39:08;;;;;;;0.40;0.40;;;10.40;82.30;;;;;;5060233;28;20040;-62
2023/10/15 08:41:38;;;;;;;0.60;0.60;;;10.40;82.30;;;;;;5058915;28;20123;-62
2023/10/15 08:44:08;;;;;;;2.00;0.40;;;10.40;82.10;;;;;;5072205;28;20027;-64
2023/10/15 08:46:37;;;;;;;0.35;0.30;;;10.40;82.00;;;;;;5070959;28;20052;-63
2023/10/15 08:49:08;;;;;;;0.28;0.28;;;10.50;82.00;;;;;;5069532;28;20032;-63
2023/10/15 08:51:35;;;;;;;4.05;0.60;;;10.60;81.80;;;;;;5069018;28;20028;-63
2023/10/15 08:54:05;;;;;;;0.85;0.43;;;10.70;81.70;;;;;;5070524;28;20021;-65
2023/10/15 08:56:31;;;;;;;0.30;0.30;;;10.70;81.30;;;;;;5054291;28;20383;-63
2023/10/15 08:58:57;;;;;;;0.30;0.30;;;10.70;81.10;;;;;;5068219;28;20040;-64
2023/10/15 09:01:23;;;;;;;0.25;0.25;;;10.80;80.90;;;;;;5054805;28;20052;-64
2023/10/15 09:03:52;;;;;;;0.40;0.28;;;10.70;80.40;;;;;;5063591;28;20032;-64
2023/10/15 09:06:22;;;;;;;0.85;0.40;;;10.70;80.50;;;;;;5063464;28;20032;-64
2023/10/15 09:08:50;;;;;;;0.28;0.28;;;10.80;80.70;;;;;;5066141;28;20040;-64
2023/10/15 09:11:16;;;;;;;0.50;0.40;;;10.80;80.60;;;;;;5066431;28;20029;-64
2023/10/15 09:13:42;;;;;;;0.10;0.10;;;10.90;80.70;;;;;;5063245;28;20403;-65
2023/10/15 09:16:08;;;;;;;0.65;0.65;;;10.90;80.90;;;;;;5067961;28;20082;-65
2023/10/15 09:18:35;;;;;;;2.05;0.40;;;11.00;81.10;;;;;;5068360;28;20029;-65
2023/10/15 09:21:04;;;;;;;0.50;0.30;;;11.30;81.20;;;;;;5070713;28;20115;-64
2023/10/15 09:23:38;;;;;;;0.65;0.22;;;11.50;80.90;;;;;;5052172;28;20323;-63
2023/10/15 09:26:07;;;;;;;0.85;0.43;;;11.80;80.30;;;;;;5060922;28;20387;-62
2023/10/15 09:28:36;;;;;;;0.10;0.10;;;12.00;79.80;;;;;;5062920;28;20040;-62
2023/10/15 09:31:04;;;;;;;0.65;0.30;;;12.30;79.70;;;;;;5064054;28;20040;-63
2023/10/15 09:33:30;;;;;;;0.52;0.30;;;12.50;78.40;;;;;;5049781;28;20516;-62
2023/10/15 09:35:57;;;;;;;0.22;0.22;;;12.40;77.60;;;;;;5066388;28;20031;-62
2023/10/15 09:38:23;;;;;;;0.40;0.35;;;12.20;77.90;;;;;;5066803;28;20020;-62
2023/10/15 09:40:49;;;;;;;0.10;0.10;;;12.10;78.50;;;;;;5061530;28;20468;-63
2023/10/15 09:43:17;;;;;;;2.72;0.45;;;12.00;78.80;;;;;;5064543;28;20028;-63
2023/10/15 09:45:43;;;;;;;0.43;0.38;;;11.90;79.00;;;;;;5065478;28;20379;-63
2023/10/15 09:48:12;;;;;;;0.28;0.28;;;11.90;79.00;;;;;;5071778;28;20028;-65
2023/10/15 09:50:38;;;;;;;0.25;0.25;;;12.00;78.70;;;;;;5068701;28;20093;-64
2023/10/15 09:53:11;;;;;;;0.40;0.40;;;12.10;78.40;;;;;;5048169;28;20024;-64
2023/10/15 09:55:38;;;;;;;1.77;0.45;;;12.20;77.50;;;;;;5062277;28;20399;-64
2023/10/15 09:58:04;;;;;;;0.20;0.20;;;12.20;77.70;;;;;;5068375;28;20025;-65
2023/10/15 10:01:17;;;;;;;1.85;0.52;;;12.30;77.80;;;;;;5069832;28;20044;-65
2023/10/15 10:04:04;;;;;;;0.10;0.10;;;12.30;77.60;;;;;;5062192;28;20120;-64
2023/10/15 10:06:48;;;;;;;1.60;0.43;;;12.30;77.80;;;;;;5065873;28;20024;-64
2023/10/15 10:09:43;;;;;;;0.20;0.20;;;12.30;77.90;;;;;;5059174;28;20037;-64
2023/10/15 10:12:39;;;;;;;0.30;0.22;;;12.30;77.70;;;;;;5062370;28;20031;-65
2023/10/15 10:15:35;;;;;;;0.45;0.25;;;12.30;77.60;;;;;;5056233;28;20032;-65
2023/10/15 10:18:03;;;;;;;0.73;0.60;;;12.30;77.70;;;;;;5045968;28;20028;-64
2023/10/15 10:20:33;;;;;;;0.63;0.47;;;12.30;77.80;;;;;;5065831;28;20055;-64
2023/10/15 10:23:07;;;;;;;0.35;0.35;;;12.40;77.40;;;;;;5065396;28;20036;-64
2023/10/15 10:25:39;;;;;;;1.48;0.40;;;12.40;77.40;;;;;;5047297;28;20432;-63
2023/10/15 10:28:08;;;;;;;0.35;0.30;;;12.50;77.30;;;;;;5064263;28;20090;-63
2023/10/15 10:30:33;;;;;;;0.30;0.25;;;12.50;76.90;;;;;;5066560;28;20116;-64
2023/10/15 10:33:04;;;;;;;0.30;0.30;;;12.60;77.10;;;;;;5066017;28;20111;-64
2023/10/15 10:35:45;;;;;;;2.40;0.70;;;12.70;76.20;;;;;;5062942;28;20028;-63
2023/10/15 10:38:18;;;;;;;10.02;0.55;;;12.90;75.60;;;;;;5062748;28;20241;-64
2023/10/15 10:40:56;;;;;;;0.50;0.32;;;13.10;74.50;;;;;;5063279;28;20032;-65
2023/10/15 10:43:24;;;;;;;0.57;0.20;;;13.00;74.00;;;;;;5061017;28;20506;-65
2023/10/15 10:45:57;;;;;;;0.17;0.17;;;13.00;73.10;;;;;;5062315;28;20062;-65
2023/10/15 10:48:24;;;;;;;0.13;0.13;;;13.10;73.80;;;;;;5065353;28;20054;-63
2023/10/15 10:51:12;;;;;;;0.30;0.20;;;13.50;73.80;;;;;;5043580;28;20024;-63
2023/10/15 10:54:02;;;;;;;0.20;0.20;;;13.80;72.70;;;;;;5064954;28;20089;-64
2023/10/15 10:56:40;;;;;;;1.55;0.73;;;14.10;70.80;;;;;;5065524;28;20056;-64
2023/10/15 10:59:11;;;;;;;0.32;0.32;;;14.30;71.30;;;;;;5064390;28;20072;-64
2023/10/15 11:01:39;;;;;;;0.40;0.38;;;14.60;70.80;;;;;;5063307;28;20472;-64
2023/10/15 11:04:09;;;;;;;1.77;0.82;;;14.60;69.30;;;;;;5064665;28;20028;-62
2023/10/15 11:06:39;;;;;;;0.35;0.20;;;14.60;69.00;;;;;;5061883;28;20556;-63
2023/10/15 11:09:20;;;;;;;0.40;0.40;;;14.70;68.80;;;;;;5063453;28;20025;-63
2023/10/15 11:11:50;;;;;;;4.87;0.83;;;14.80;69.30;;;;;;5032677;28;20024;-63
2023/10/15 11:14:18;;;;;;;2.67;0.35;;;15.20;69.30;;;;;;5064131;28;20032;-63
2023/10/15 11:16:47;;;;;;;0.30;0.20;;;15.40;68.20;;;;;;5044463;28;20060;-63
2023/10/15 11:19:17;;;;;;;0.98;0.30;;;15.40;68.30;;;;;;5064644;28;20032;-63
2023/10/15 11:21:44;;;;;;;0.40;0.35;;;15.50;68.20;;;;;;5059091;28;20053;-63
2023/10/15 11:24:10;;;;;;;0.98;0.63;;;15.60;66.50;;;;;;5063339;28;20044;-64
2023/10/15 11:26:37;;;;;;;0.40;0.40;;;15.60;66.70;;;;;;5051905;28;20025;-63
2023/10/15 11:29:04;;;;;;;0.68;0.47;;;15.50;67.50;;;;;;5054077;28;20041;-64
2023/10/15 11:31:30;;;;;;;0.50;0.40;;;15.70;67.30;;;;;;5054645;28;20063;-64
2023/10/15 11:33:55;;;;;;;1.77;0.77;;;15.80;64.70;;;;;;5053884;28;20068;-64
2023/10/15 11:36:23;;;;;;;0.55;0.40;;;15.70;65.40;;;;;;5056671;28;20032;-64
2023/10/15 11:38:49;;;;;;;0.60;0.50;;;15.60;65.70;;;;;;5058252;28;20051;-63
2023/10/15 11:41:17;;;;;;;0.45;0.35;;;15.50;66.10;;;;;;5060299;28;20060;-63
2023/10/15 11:43:43;;;;;;;0.68;0.20;;;15.70;65.80;;;;;;5058155;28;20043;-64
2023/10/15 11:46:10;;;;;;;0.40;0.40;;;15.80;65.50;;;;;;5059123;28;20032;-65
2023/10/15 11:48:37;;;;;;;0.43;0.30;;;15.80;63.30;;;;;;5059809;28;20029;-65
2023/10/15 11:51:08;;;;;;;0.95;0.65;;;15.50;64.20;;;;;;5057670;28;20031;-65
2023/10/15 11:53:34;;;;;;;0.60;0.52;;;15.30;65.60;;;;;;5054261;28;20025;-65
2023/10/15 11:56:02;;;;;;;0.22;0.10;;;15.50;65.60;;;;;;5043675;28;20032;-65
2023/10/15 11:58:31;;;;;;;1.58;0.65;;;15.60;65.10;;;;;;5054102;28;20420;-64
2023/10/15 12:00:58;;;;;;;0.52;0.22;;;15.90;64.70;;;;;;5055919;28;20032;-66
2023/10/15 12:03:25;;;;;;;0.52;0.40;;;16.20;63.70;;;;;;5061044;28;20094;-66
2023/10/15 12:05:51;;;;;;;0.22;0.20;;;16.10;63.00;;;;;;5060611;28;20025;-66
2023/10/15 12:08:21;;;;;;;0.93;0.52;;;15.60;59.60;;;;;;5060044;28;20033;-66
2023/10/15 12:10:47;;;;;;;1.23;0.60;;;15.20;62.00;;;;;;5061353;28;20398;-66
2023/10/15 12:13:17;;;;;;;0.90;0.40;;;14.90;62.70;;;;;;5066096;28;20100;-66
2023/10/15 12:15:42;;;;;;;0.35;0.30;;;14.80;63.50;;;;;;5064934;28;20013;-66
2023/10/15 12:18:09;;;;;;;1.15;0.30;;;14.90;61.70;;;;;;5046387;28;20052;-66
2023/10/15 12:20:35;;;;;;;0.50;0.47;;;15.20;61.30;;;;;;5042348;28;20094;-64
2023/10/15 12:23:00;;;;;;;1.13;0.43;;;15.40;61.80;;;;;;5060341;28;20033;-66
2023/10/15 12:25:26;;;;;;;0.70;0.70;;;15.60;61.50;;;;;;5062384;28;20356;-66
2023/10/15 12:27:52;;;;;;;0.90;0.22;;;15.70;61.20;;;;;;5066274;28;20407;-66
2023/10/15 12:30:23;;;;;;;4.30;0.65;;;15.80;61.20;;;;;;5058288;28;20036;-66
2023/10/15 12:32:58;;;;;;;0.52;0.50;;;15.90;60.90;;;;;;5057888;28;20410;-66
2023/10/15 12:35:24;;;;;;;1.20;0.60;;;15.80;60.40;;;;;;5059154;28;20101;-66
2023/10/15 12:37:58;;;;;;;0.65;0.40;;;15.90;61.50;;;;;;5065183;28;20024;-66
2023/10/15 12:40:30;;;;;;;2.15;0.52;;;16.00;61.60;;;;;;5063373;28;20024;-66
2023/10/15 12:42:55;;;;;;;2.10;0.40;;;16.30;61.40;;;;;;5062198;28;20111;-66
2023/10/15 12:45:21;;;;;;;0.28;0.28;;;16.50;59.50;;;;;;5066353;28;20435;-66
2023/10/15 12:47:50;;;;;;;0.40;0.40;;;16.70;59.60;;;;;;5066552;28;20052;-66
2023/10/15 12:50:16;;;;;;;0.20;0.20;;;16.70;58.50;;;;;;5049489;28;20029;-66
2023/10/15 12:52:47;;;;;;;1.50;0.50;;;16.30;59.60;;;;;;5066294;28;20037;-66
2023/10/15 12:55:18;;;;;;;1.85;0.45;;;16.00;60.70;;;;;;5044207;28;20027;-64
2023/10/15 12:57:46;;;;;;;1.23;0.40;;;15.70;61.00;;;;;;5064564;28;20044;-65
2023/10/15 13:00:18;;;;;;;0.57;0.20;;;15.50;61.90;;;;;;5062268;28;20732;-66
2023/10/15 13:02:51;;;;;;;1.10;0.70;;;15.30;62.20;;;;;;5061614;28;20077;-65
2023/10/15 13:05:25;;;;;;;1.40;0.60;;;15.10;62.20;;;;;;5064614;28;20145;-66
2023/10/15 13:07:53;;;;;;;2.67;0.30;;;15.00;62.30;;;;;;5061127;28;20024;-66